Domov               UVHVVR             MKGP            O straneh              
ZDRAVSTVENO VARSTVO RASTLIN
  MREŽA AGROMET. POSTAJ
 ► PROGNOSTIČNA OBVESTILA
AGROMETEOROLOŠKI PODATKI -
ARSO
OBVLADOVANJE TVEGANJ ZARADI
NEUGODNIH VREMENSKIH RAZMER
  ► NARAVNE NESREČE
  ► SUŠA/MOČA
  ► NAMAKANJE
  ► ŽLED (gozdarstvo)
KARTOGRAFSKI PRIKAZI
SPLETNE POVEZAVE
PROJEKTI IN PUBLIKACIJE

AGROMETEOROLOŠKA MREŽA: VREMENSKE POSTAJE IN FENOLOŠKA OPAZOVANJA

Pregled podatkov za lokacijo Kozana, meteorološka postaja 863701

Pregled senzorjev na lokaciji

ID Ime Zadnja
vrednost
Datum in čas
zadnje
spremembe
(Lokalni čas)
Tip
senzorja
4188 Omočenost lista (1,5 m) (U) 0 U 23.1.2022 16:00 A730WET
5085 Padavine (mm) 0 mm 23.1.2022 16:00 Generic 0.2 mm
4187 Relativna zračna vlaga (2 m) (%RH) 58 %RH 23.1.2022 16:00 50YA
4186 Temperatura (2 m) (°C) 9.2 °C 23.1.2022 16:00 50YA
5099 Smer vetra (3 m) (°) 1 ° 23.1.2022 16:00 Generic 0 - 360
5098 Hitrost vetra (3 m) (km/h) 4 km/h 23.1.2022 16:00 Generic 200 km/h

Pregled podatkov zadnjih 24 ur

Zap.
št.
Datum in čas
(Centralno
evropski čas)
Kozana
Omočenost
lista
(1,5
m)
Padavine Relativna
zračna
vlaga
(2
m)
Temperatura
(2
m)
Smer
vetra
(3
m)
Hitrost
vetra
(3
m)
1 23.1.2022 16:00 0 0 58.4 9.2 0.7 3.6
2 23.1.2022 15:30 0 0 57 9.5 0.7 3.9
3 23.1.2022 15:00 0 0 56.9 9.3 0.7 5.4
4 23.1.2022 14:30 0 0 58.2 9.5 0.7 5.6
5 23.1.2022 14:00 0 0 60.5 9.2 0.7 5.5
6 23.1.2022 13:30 0 0 62.6 8.7 0.6 4.2
7 23.1.2022 13:00 0 0 63 8.7 0.8 4.5
8 23.1.2022 12:30 0 0 61 8.7 0.7 3.8
9 23.1.2022 12:00 0 0 59 8 0.7 2.9
10 23.1.2022 11:30 0 0 61.1 6.3 0.7 5.6
11 23.1.2022 11:00 0 0 61.5 6 0.9 7.3
12 23.1.2022 10:30 0 0 63.8 5.5 0.8 6.1
13 23.1.2022 10:00 0 0 70.3 3.4 0.7 8.2
14 23.1.2022 09:30 0 0 69.9 3.4 0.8 8.5
15 23.1.2022 09:00 0 0 73.2 2.6 0.8 9.9
16 23.1.2022 08:30 0 0 76.9 1.6 0.8 8.6
17 23.1.2022 08:00 0 0 78.2 1.1 0.8 8.4
18 23.1.2022 07:30 0 0 78.8 0.9 0.9 6
19 23.1.2022 07:00 0 0 78.1 1.1 0.8 7.7
20 23.1.2022 06:30 0 0 77.4 1.1 0.8 8
21 23.1.2022 06:00 0 0 76.9 1.3 0.9 8.5
22 23.1.2022 05:30 0 0 77.3 1.3 0.9 5.1
23 23.1.2022 05:00 0 0 77.9 1.2 0.8 7.1
24 23.1.2022 04:30 0 0 77.1 1.3 0.8 5.4
25 23.1.2022 04:00 0 0 75.6 1.8 0.9 5.8
26 23.1.2022 03:30 0 0 73.6 2.2 0.8 7.9
27 23.1.2022 03:00 0 0 74 2 0.9 6
28 23.1.2022 02:30 0 0 72.4 2.3 0.8 4.5
29 23.1.2022 02:00 0 0 69.7 2.9 0.8 3.3
30 23.1.2022 01:30 0 0 67.9 3.5 0.8 9.1
31 23.1.2022 01:00 2 0 68.8 3.2 0.7 8.5
32 23.1.2022 00:30 10 0 70.7 2.5 0.8 6.9
33 23.1.2022 00:00 10 0 74.4 2 0.6 2.9
34 22.1.2022 23:30 10 0 78.6 1.7 0.9 2.7
35 22.1.2022 23:00 10 0 92.6 0.6 0.9 2.4
36 22.1.2022 22:30 10 0 91.1 1.1 0.8 2.3
37 22.1.2022 22:00 10 0 92.3 1.4 0.8 1.2
38 22.1.2022 21:30 10 0 91.9 1.2 0.7 1
39 22.1.2022 21:00 10 0 91.3 1.4 0.8 1.6
40 22.1.2022 20:30 10 0 91 1.8 0.9 2.8
41 22.1.2022 20:00 10 0 93.6 1.6 0.8 2
42 22.1.2022 19:30 10 0 92.5 1.8 0.8 1.6
43 22.1.2022 19:00 9 0 91.2 2.4 0.8 1.7
44 22.1.2022 18:30 7 0 89.6 2.9 0.7 3.7
45 22.1.2022 18:00 5 0 88.2 3.3 0.8 2.7
46 22.1.2022 17:30 3 0 86.4 3.5 0.8 1.5
47 22.1.2022 17:00 1 0 82.3 4.3 0.5 2.4
48 22.1.2022 16:30 0 0 74.6 5.9 0.7 3.5
© 2011 Ministrstvo za kmetijstvo, gozdarstvo in prehrano. Vse pravice pridržane.